createdAt,value
2019-04-07T00:01:48.564Z,21.40
2019-04-07T00:04:18.916Z,22.70
2019-04-07T00:06:48.214Z,22.87
2019-04-07T00:09:17.686Z,21.40
2019-04-07T00:11:47.070Z,21.40
2019-04-07T00:14:16.731Z,21.00
2019-04-07T00:16:46.157Z,21.00
2019-04-07T00:19:15.741Z,20.07
2019-04-07T00:21:45.554Z,21.83
2019-04-07T00:24:15.985Z,20.80
2019-04-07T00:26:45.445Z,21.90
2019-04-07T00:29:15.543Z,22.27
2019-04-07T00:31:44.979Z,22.63
2019-04-07T00:34:14.261Z,23.00
2019-04-07T00:36:43.827Z,22.80
2019-04-07T00:39:13.159Z,22.73
2019-04-07T00:41:42.944Z,22.97
2019-04-07T00:44:12.658Z,22.33
2019-04-07T00:46:42.250Z,21.90
2019-04-07T00:49:11.868Z,23.53
2019-04-07T00:51:41.171Z,22.47
2019-04-07T00:54:10.469Z,22.53
2019-04-07T00:56:40.129Z,21.80
2019-04-07T00:59:10.701Z,21.90
2019-04-07T01:01:41.453Z,20.47
2019-04-07T01:04:11.148Z,22.60
2019-04-07T01:06:40.659Z,21.30
2019-04-07T01:09:10.750Z,21.43
2019-04-07T01:11:40.403Z,21.47
2019-04-07T01:14:10.308Z,20.67
2019-04-07T01:16:40.736Z,22.10
2019-04-07T01:19:10.121Z,21.53
2019-04-07T01:21:39.413Z,22.90
2019-04-07T01:24:08.791Z,20.63
2019-04-07T01:26:38.444Z,21.57
2019-04-07T01:29:08.050Z,22.17
2019-04-07T01:31:38.002Z,21.60
2019-04-07T01:34:08.706Z,20.90
2019-04-07T01:36:38.139Z,22.50
2019-04-07T01:39:09.184Z,21.50
2019-04-07T01:41:49.562Z,22.30
2019-04-07T01:44:23.541Z,21.60
2019-04-07T01:46:55.973Z,21.03
2019-04-07T01:49:27.238Z,21.17
2019-04-07T01:51:58.241Z,22.27
2019-04-07T01:54:31.982Z,21.07
2019-04-07T01:57:20.146Z,20.83
2019-04-07T02:00:08.341Z,21.60
2019-04-07T02:02:56.706Z,23.33
2019-04-07T02:05:28.735Z,21.70
2019-04-07T02:08:06.626Z,21.80
2019-04-07T02:10:44.797Z,22.60
2019-04-07T02:13:16.472Z,21.87
2019-04-07T02:16:00.236Z,23.70
2019-04-07T02:18:43.541Z,24.23
2019-04-07T02:21:27.438Z,23.03
2019-04-07T02:24:04.787Z,24.50
2019-04-07T02:26:47.597Z,22.90
2019-04-07T02:29:19.677Z,23.30
2019-04-07T02:31:52.206Z,23.10
2019-04-07T02:34:29.900Z,23.03
2019-04-07T02:37:17.581Z,21.43
2019-04-07T02:39:55.022Z,21.90
2019-04-07T02:42:27.517Z,22.30
2019-04-07T02:45:15.175Z,23.20
2019-04-07T02:47:46.798Z,22.53
2019-04-07T02:50:31.723Z,21.33
2019-04-07T02:53:09.533Z,22.70
2019-04-07T02:55:57.258Z,23.20
2019-04-07T02:58:44.723Z,23.93
2019-04-07T03:01:15.654Z,22.97
2019-04-07T03:03:58.607Z,22.67
2019-04-07T03:06:43.056Z,22.37
2019-04-07T03:09:19.098Z,23.37
2019-04-07T03:11:56.512Z,22.90
2019-04-07T03:14:31.468Z,23.07
2019-04-07T03:17:06.685Z,22.00
2019-04-07T03:19:54.159Z,22.50
2019-04-07T03:22:31.171Z,23.17
2019-04-07T03:25:11.210Z,23.23
2019-04-07T03:27:59.191Z,23.07
2019-04-07T03:30:42.518Z,21.77
2019-04-07T03:33:19.253Z,22.47
2019-04-07T03:35:52.863Z,23.20
2019-04-07T03:38:39.305Z,22.27
2019-04-07T03:41:19.667Z,22.17
2019-04-07T03:44:03.332Z,22.87
2019-04-07T03:46:52.464Z,22.97
2019-04-07T03:49:23.620Z,23.80
2019-04-07T03:52:00.821Z,24.93
2019-04-07T03:54:48.314Z,24.47
2019-04-07T03:57:35.256Z,23.10
2019-04-07T04:00:25.483Z,24.80
2019-04-07T04:02:56.898Z,23.57
2019-04-07T04:05:30.911Z,23.70
2019-04-07T04:08:18.294Z,23.97
2019-04-07T04:10:52.696Z,25.00
2019-04-07T04:13:23.790Z,22.03
2019-04-07T04:15:54.720Z,22.77
2019-04-07T04:18:24.300Z,23.83
2019-04-07T04:20:54.291Z,24.83
2019-04-07T04:23:23.671Z,23.20
2019-04-07T04:25:53.723Z,22.97
2019-04-07T04:28:23.678Z,23.97
2019-04-07T04:30:53.790Z,23.43
2019-04-07T04:33:23.528Z,22.90
2019-04-07T04:35:53.832Z,24.07
2019-04-07T04:38:24.170Z,23.93
2019-04-07T04:40:53.645Z,22.80
2019-04-07T04:43:23.460Z,24.30
2019-04-07T04:45:53.454Z,23.77
2019-04-07T04:48:23.774Z,24.80
2019-04-07T04:50:53.373Z,23.63
2019-04-07T04:53:22.761Z,23.50
2019-04-07T04:55:53.571Z,24.80
2019-04-07T04:58:22.977Z,23.27
2019-04-07T05:00:52.506Z,24.00
2019-04-07T05:03:21.839Z,26.70
2019-04-07T05:05:51.263Z,24.17
2019-04-07T05:08:20.707Z,25.13
2019-04-07T05:10:50.022Z,25.03
2019-04-07T05:13:19.863Z,23.37
2019-04-07T05:15:50.118Z,26.97
2019-04-07T05:18:20.010Z,23.23
2019-04-07T05:20:49.920Z,25.13
2019-04-07T05:23:19.633Z,24.47
2019-04-07T05:25:49.172Z,24.73
2019-04-07T05:28:19.122Z,24.77
2019-04-07T05:30:49.007Z,25.83
2019-04-07T05:33:18.819Z,25.77
2019-04-07T05:35:48.367Z,25.77
2019-04-07T05:38:17.775Z,25.07
2019-04-07T05:40:47.519Z,26.73
2019-04-07T05:43:17.377Z,26.30
2019-04-07T05:45:46.793Z,26.40
2019-04-07T05:48:19.232Z,25.60
2019-04-07T05:50:47.275Z,25.03
2019-04-07T05:53:17.072Z,24.00
2019-04-07T05:55:46.878Z,25.47
2019-04-07T05:58:16.863Z,26.23
2019-04-07T06:00:48.617Z,25.60
2019-04-07T06:03:17.704Z,25.20
2019-04-07T06:05:49.158Z,25.23
2019-04-07T06:08:28.831Z,24.93
2019-04-07T06:10:50.014Z,23.60
2019-04-07T06:13:19.979Z,25.77
2019-04-07T06:15:51.383Z,23.67
2019-04-07T06:18:20.698Z,24.80
2019-04-07T06:20:50.501Z,24.80
2019-04-07T06:23:22.095Z,23.23
2019-04-07T06:25:51.098Z,24.77
2019-04-07T06:28:20.712Z,24.10
2019-04-07T06:30:50.043Z,23.07
2019-04-07T06:33:19.927Z,23.23
2019-04-07T06:35:49.912Z,24.50
2019-04-07T06:38:30.330Z,24.90
2019-04-07T06:40:56.521Z,23.23
2019-04-07T06:43:22.912Z,23.83
2019-04-07T06:46:12.896Z,23.83
2019-04-07T06:48:59.312Z,22.83
2019-04-07T06:51:37.204Z,22.90
2019-04-07T06:54:24.598Z,22.57
2019-04-07T06:57:12.315Z,22.93
2019-04-07T06:59:55.855Z,21.93
2019-04-07T07:02:27.000Z,22.63
2019-04-07T07:05:13.603Z,20.70
2019-04-07T07:07:45.843Z,23.10
2019-04-07T07:10:25.921Z,20.50
2019-04-07T07:12:49.605Z,21.97
2019-04-07T07:15:33.793Z,22.43
2019-04-07T07:18:02.524Z,21.17
2019-04-07T07:20:36.330Z,21.70
2019-04-07T07:23:07.683Z,20.97
2019-04-07T07:25:37.270Z,22.87
2019-04-07T07:28:07.598Z,20.17
2019-04-07T07:30:37.841Z,21.07
2019-04-07T07:33:09.700Z,19.17
2019-04-07T07:35:38.824Z,20.47
2019-04-07T07:38:09.208Z,20.53
2019-04-07T07:40:39.609Z,19.57
2019-04-07T07:43:09.713Z,19.00
2019-04-07T07:45:43.617Z,20.23
2019-04-07T07:48:10.923Z,18.63
2019-04-07T07:50:40.774Z,18.57
2019-04-07T07:53:10.512Z,18.60
2019-04-07T07:55:40.200Z,17.57
2019-04-07T07:58:09.540Z,18.33
2019-04-07T08:00:41.549Z,18.30
2019-04-07T08:03:10.277Z,18.07
2019-04-07T08:05:39.670Z,17.53
2019-04-07T08:08:09.308Z,18.23
2019-04-07T08:10:39.708Z,17.20
2019-04-07T08:13:09.279Z,17.23
2019-04-07T08:15:39.307Z,17.10
2019-04-07T08:18:09.726Z,16.77
2019-04-07T08:20:40.927Z,16.33
2019-04-07T08:23:12.182Z,15.80
2019-04-07T08:25:41.364Z,15.67
2019-04-07T08:28:10.911Z,16.50
2019-04-07T08:30:43.909Z,16.63
2019-04-07T08:33:11.195Z,17.80
2019-04-07T08:35:40.825Z,15.00
2019-04-07T08:38:11.013Z,15.40
2019-04-07T08:40:40.686Z,16.50
2019-04-07T08:43:09.978Z,16.10
2019-04-07T08:45:39.841Z,16.37
2019-04-07T08:48:09.134Z,14.93
2019-04-07T08:50:38.718Z,15.17
2019-04-07T08:53:10.500Z,14.37
2019-04-07T08:55:39.183Z,14.70
2019-04-07T08:58:08.529Z,15.20
2019-04-07T09:00:55.989Z,14.37
2019-04-07T09:03:25.439Z,13.40
2019-04-07T09:05:57.358Z,13.77
2019-04-07T09:08:26.253Z,13.60
2019-04-07T09:11:00.365Z,11.67
2019-04-07T09:13:31.667Z,12.90
2019-04-07T09:16:18.631Z,12.13
2019-04-07T09:19:08.340Z,12.17
2019-04-07T09:21:42.852Z,11.47
2019-04-07T09:24:20.420Z,10.53
2019-04-07T09:27:07.978Z,10.53
2019-04-07T09:29:38.902Z,10.20
2019-04-07T09:32:15.675Z,9.67
2019-04-07T09:34:56.277Z,10.27
2019-04-07T09:37:44.535Z,10.30
2019-04-07T09:40:32.076Z,9.70
2019-04-07T09:43:08.489Z,9.27
2019-04-07T09:45:51.859Z,10.83
2019-04-07T09:48:26.788Z,9.20
2019-04-07T09:51:05.107Z,9.83
2019-04-07T09:53:48.803Z,8.90
2019-04-07T09:56:33.725Z,9.20
2019-04-07T09:59:16.769Z,7.57
2019-04-07T10:01:59.334Z,7.20
2019-04-07T10:04:42.474Z,7.30
2019-04-07T10:07:19.460Z,6.67
2019-04-07T10:10:12.302Z,6.10
2019-04-07T10:12:45.893Z,6.63
2019-04-07T10:15:28.710Z,5.90
2019-04-07T10:18:02.319Z,6.67
2019-04-07T10:20:33.641Z,7.17
2019-04-07T10:23:23.182Z,6.03
2019-04-07T10:25:54.933Z,6.60
2019-04-07T10:28:26.487Z,6.17
2019-04-07T10:31:03.457Z,6.17
2019-04-07T10:33:37.830Z,6.03
2019-04-07T10:36:09.289Z,5.80
2019-04-07T10:38:49.714Z,6.20
2019-04-07T10:41:32.728Z,6.60
2019-04-07T10:44:03.903Z,6.33
2019-04-07T10:46:34.899Z,6.80
2019-04-07T10:49:06.778Z,5.90
2019-04-07T10:51:49.985Z,6.00
2019-04-07T10:54:35.927Z,5.67
2019-04-07T10:57:24.509Z,5.73
2019-04-07T10:59:58.386Z,6.80
2019-04-07T11:02:41.485Z,6.30
2019-04-07T11:05:18.665Z,5.70
2019-04-07T11:08:02.470Z,6.33
2019-04-07T11:10:39.120Z,6.00
2019-04-07T11:13:11.737Z,6.00
2019-04-07T11:15:50.979Z,6.03
2019-04-07T11:18:22.673Z,5.50
2019-04-07T11:20:54.515Z,6.03
2019-04-07T11:23:37.452Z,6.63
2019-04-07T11:26:25.318Z,6.30
2019-04-07T11:29:04.936Z,6.77
2019-04-07T11:31:36.871Z,5.50
2019-04-07T11:34:07.866Z,6.00
2019-04-07T11:36:39.687Z,6.13
2019-04-07T11:39:19.988Z,6.00
2019-04-07T11:41:57.413Z,5.23
2019-04-07T11:44:32.226Z,6.70
2019-04-07T11:47:04.985Z,6.07
2019-04-07T11:49:43.903Z,6.17
2019-04-07T11:52:20.371Z,6.60
2019-04-07T11:55:08.565Z,7.03
2019-04-07T11:58:10.731Z,7.27
2019-04-07T12:00:29.913Z,6.03
2019-04-07T12:03:01.377Z,5.77
2019-04-07T12:05:34.983Z,6.20
2019-04-07T12:08:24.594Z,6.63
2019-04-07T12:11:04.755Z,7.60
2019-04-07T12:13:42.871Z,6.73
2019-04-07T12:16:24.723Z,7.17
2019-04-07T12:19:15.036Z,6.57
2019-04-07T12:22:05.502Z,6.07
2019-04-07T12:24:52.200Z,6.37
2019-04-07T12:27:23.996Z,6.50
2019-04-07T12:30:07.825Z,6.37
2019-04-07T12:32:41.718Z,6.77
2019-04-07T12:35:19.528Z,6.20
2019-04-07T12:37:54.193Z,6.47
2019-04-07T12:40:28.929Z,6.60
2019-04-07T12:43:00.338Z,5.50
2019-04-07T12:45:40.239Z,6.07
2019-04-07T12:48:29.986Z,6.33
2019-04-07T12:51:17.599Z,6.10
2019-04-07T12:54:08.162Z,6.10
2019-04-07T12:56:39.131Z,6.23
2019-04-07T12:59:27.195Z,5.60
2019-04-07T13:02:06.031Z,5.73
2019-04-07T13:04:44.600Z,6.30
2019-04-07T13:07:28.474Z,6.20
2019-04-07T13:10:16.906Z,6.03
2019-04-07T13:13:03.725Z,5.93
2019-04-07T13:15:37.798Z,6.00
2019-04-07T13:18:20.266Z,5.70
2019-04-07T13:20:54.784Z,6.17
2019-04-07T13:23:26.586Z,6.30
2019-04-07T13:26:00.826Z,6.60
2019-04-07T13:28:50.336Z,6.10
2019-04-07T13:31:25.719Z,6.97
2019-04-07T13:34:01.200Z,6.90
2019-04-07T13:36:46.316Z,6.20
2019-04-07T13:39:35.842Z,6.33
2019-04-07T13:42:10.991Z,6.60
2019-04-07T13:45:03.525Z,5.63
2019-04-07T13:47:45.951Z,6.00
2019-04-07T13:50:34.411Z,6.93
2019-04-07T13:53:20.752Z,6.20
2019-04-07T13:55:52.065Z,6.73
2019-04-07T13:58:29.207Z,6.17
2019-04-07T14:01:17.999Z,6.37
2019-04-07T14:03:49.190Z,7.30
2019-04-07T14:06:34.002Z,6.57
2019-04-07T14:09:19.157Z,7.07
2019-04-07T14:12:04.798Z,6.70
2019-04-07T14:14:42.771Z,6.47
2019-04-07T14:17:16.752Z,6.70
2019-04-07T14:20:07.067Z,7.03
2019-04-07T14:22:44.339Z,8.27
2019-04-07T14:25:15.566Z,8.10
2019-04-07T14:27:56.616Z,8.13
2019-04-07T14:30:45.512Z,8.03
2019-04-07T14:33:16.645Z,8.00
2019-04-07T14:35:48.917Z,7.47
2019-04-07T14:38:23.968Z,8.50
2019-04-07T14:41:11.723Z,9.07
2019-04-07T14:44:00.583Z,7.70
2019-04-07T14:46:32.708Z,8.17
2019-04-07T14:49:07.660Z,8.50
2019-04-07T14:51:53.703Z,7.50
2019-04-07T14:54:24.854Z,8.83
2019-04-07T14:56:58.712Z,8.40
2019-04-07T14:59:42.598Z,8.47
2019-04-07T15:02:13.794Z,8.63
2019-04-07T15:04:45.523Z,8.47
2019-04-07T15:07:28.453Z,9.23
2019-04-07T15:09:59.868Z,7.80
2019-04-07T15:12:31.360Z,9.33
2019-04-07T15:15:04.658Z,9.23
2019-04-07T15:17:32.987Z,9.60
2019-04-07T15:20:02.820Z,9.67
2019-04-07T15:22:32.472Z,8.57
2019-04-07T15:25:01.761Z,8.60
2019-04-07T15:27:31.588Z,8.77
2019-04-07T15:30:02.253Z,9.07
2019-04-07T15:32:31.650Z,7.57
2019-04-07T15:35:00.939Z,7.83
2019-04-07T15:37:30.359Z,8.80
2019-04-07T15:40:02.686Z,8.30
2019-04-07T15:42:40.347Z,8.13
2019-04-07T15:45:02.443Z,9.43
2019-04-07T15:47:33.409Z,9.60
2019-04-07T15:50:03.176Z,9.40
2019-04-07T15:52:32.886Z,8.70
2019-04-07T15:55:02.170Z,9.60
2019-04-07T15:57:32.524Z,9.00
2019-04-07T16:00:03.956Z,10.10
2019-04-07T16:02:33.554Z,10.33
2019-04-07T16:05:03.718Z,9.60
2019-04-07T16:07:33.142Z,9.27
2019-04-07T16:10:02.504Z,9.40
2019-04-07T16:12:42.494Z,10.83
2019-04-07T16:15:04.106Z,10.87
2019-04-07T16:17:34.697Z,10.60
2019-04-07T16:20:19.914Z,10.83
2019-04-07T16:22:44.263Z,10.83
2019-04-07T16:25:14.344Z,10.53
2019-04-07T16:27:44.564Z,10.40
2019-04-07T16:30:16.391Z,10.90
2019-04-07T16:32:45.630Z,12.50
2019-04-07T16:35:16.614Z,12.40
2019-04-07T16:37:46.548Z,12.13
2019-04-07T16:40:18.413Z,13.10
2019-04-07T16:43:02.646Z,12.33
2019-04-07T16:45:19.208Z,11.80
2019-04-07T16:47:48.661Z,12.10
2019-04-07T16:50:20.289Z,12.60
2019-04-07T16:52:49.709Z,12.50
2019-04-07T16:55:28.279Z,12.27
2019-04-07T16:58:01.041Z,12.37
2019-04-07T17:00:28.839Z,12.80
2019-04-07T17:03:00.089Z,12.50
2019-04-07T17:05:30.245Z,12.30
2019-04-07T17:07:59.947Z,12.23
2019-04-07T17:10:32.422Z,11.60
2019-04-07T17:13:05.333Z,12.20
2019-04-07T17:15:32.784Z,12.30
2019-04-07T17:18:07.197Z,12.70
2019-04-07T17:20:37.736Z,12.80
2019-04-07T17:23:07.542Z,12.57
2019-04-07T17:25:37.586Z,12.67
2019-04-07T17:28:07.850Z,12.60
2019-04-07T17:30:55.876Z,13.50
2019-04-07T17:33:29.511Z,13.10
2019-04-07T17:35:59.243Z,12.23
2019-04-07T17:38:48.807Z,12.07
2019-04-07T17:41:18.388Z,12.70
2019-04-07T17:43:54.403Z,12.67
2019-04-07T17:46:37.362Z,12.20
2019-04-07T17:49:14.719Z,12.20
2019-04-07T17:52:02.087Z,12.93
2019-04-07T17:54:36.555Z,14.47
2019-04-07T17:57:08.879Z,12.30
2019-04-07T17:59:44.497Z,13.07
2019-04-07T18:02:28.706Z,14.07
2019-04-07T18:05:00.248Z,13.17
2019-04-07T18:07:38.136Z,14.57
2019-04-07T18:10:12.341Z,12.23
2019-04-07T18:12:49.218Z,13.30
2019-04-07T18:15:36.661Z,12.83
2019-04-07T18:18:23.574Z,13.43
2019-04-07T18:20:52.927Z,13.30
2019-04-07T18:23:27.748Z,13.90
2019-04-07T18:26:09.906Z,13.37
2019-04-07T18:28:43.339Z,19.03
2019-04-07T18:31:22.050Z,15.23
2019-04-07T18:34:09.984Z,14.77
2019-04-07T18:36:52.966Z,15.27
2019-04-07T18:39:30.201Z,15.20
2019-04-07T18:42:16.524Z,13.83
2019-04-07T18:44:55.405Z,14.43
2019-04-07T18:47:32.489Z,15.30
2019-04-07T18:50:07.169Z,16.37
2019-04-07T18:52:54.487Z,15.60
2019-04-07T18:55:28.462Z,16.50
2019-04-07T18:58:06.362Z,16.17
2019-04-07T19:00:53.778Z,15.40
2019-04-07T19:03:41.818Z,15.90
2019-04-07T19:06:16.672Z,15.37
2019-04-07T19:08:56.195Z,16.30
2019-04-07T19:11:41.626Z,15.77
2019-04-07T19:14:31.495Z,16.60
2019-04-07T19:16:49.257Z,16.00
2019-04-07T19:19:35.515Z,16.40
2019-04-07T19:22:22.851Z,16.60
2019-04-07T19:24:56.692Z,15.47
2019-04-07T19:27:31.418Z,16.80
2019-04-07T19:30:20.815Z,16.67
2019-04-07T19:33:00.496Z,17.40
2019-04-07T19:35:37.715Z,18.03
2019-04-07T19:38:06.844Z,18.77
2019-04-07T19:40:38.067Z,16.70
2019-04-07T19:43:15.078Z,16.97
2019-04-07T19:45:56.200Z,17.90
2019-04-07T19:48:28.806Z,18.23
2019-04-07T19:51:29.380Z,18.00
2019-04-07T19:54:19.126Z,16.60
2019-04-07T19:57:05.487Z,18.87
2019-04-07T19:59:39.255Z,18.00
2019-04-07T20:02:25.580Z,18.33
2019-04-07T20:05:05.830Z,18.63
2019-04-07T20:07:46.263Z,18.43
2019-04-07T20:10:27.017Z,18.83
2019-04-07T20:13:15.571Z,19.10
2019-04-07T20:15:57.726Z,18.97
2019-04-07T20:18:35.311Z,18.83
2019-04-07T20:21:13.135Z,19.60
2019-04-07T20:24:01.479Z,18.73
2019-04-07T20:26:50.990Z,17.93
2019-04-07T20:29:38.097Z,17.93
2019-04-07T20:32:26.041Z,19.20
2019-04-07T20:34:59.547Z,19.57
2019-04-07T20:37:30.716Z,18.47
2019-04-07T20:40:10.696Z,19.47
2019-04-07T20:42:46.383Z,18.20
2019-04-07T20:45:19.257Z,18.90
2019-04-07T20:47:56.719Z,19.10
2019-04-07T20:50:35.860Z,17.67
2019-04-07T20:53:26.383Z,20.20
2019-04-07T20:55:56.241Z,17.30
2019-04-07T20:58:46.420Z,18.80
2019-04-07T21:01:10.999Z,20.10
2019-04-07T21:03:49.613Z,17.87
2019-04-07T21:06:25.341Z,17.90
2019-04-07T21:09:09.919Z,18.70
2019-04-07T21:11:45.122Z,17.53
2019-04-07T21:14:17.186Z,20.13
2019-04-07T21:17:01.349Z,18.87
2019-04-07T21:19:38.314Z,18.27
2019-04-07T21:22:20.477Z,18.17
2019-04-07T21:24:57.191Z,19.30
2019-04-07T21:27:33.888Z,18.60
2019-04-07T21:30:06.722Z,18.97
2019-04-07T21:32:37.659Z,19.13
2019-04-07T21:35:11.291Z,18.80
2019-04-07T21:37:48.962Z,20.73
2019-04-07T21:40:40.271Z,18.97
2019-04-07T21:43:27.191Z,18.70
2019-04-07T21:46:13.345Z,20.53
2019-04-07T21:49:02.621Z,19.97
2019-04-07T21:51:36.269Z,20.97
2019-04-07T21:54:07.718Z,19.90
2019-04-07T21:56:47.959Z,19.90
2019-04-07T21:59:26.554Z,20.90
2019-04-07T22:01:55.083Z,19.37
2019-04-07T22:04:28.567Z,19.30
2019-04-07T22:06:59.605Z,19.40
2019-04-07T22:09:50.723Z,21.43
2019-04-07T22:12:18.837Z,19.33
2019-04-07T22:14:48.601Z,19.57
2019-04-07T22:17:17.891Z,20.00
2019-04-07T22:19:47.895Z,20.37
2019-04-07T22:22:18.506Z,19.53
2019-04-07T22:24:47.911Z,21.43
2019-04-07T22:27:21.215Z,20.43
2019-04-07T22:29:48.970Z,20.37
2019-04-07T22:32:21.558Z,20.23
2019-04-07T22:34:50.379Z,20.47
2019-04-07T22:37:22.026Z,20.37
2019-04-07T22:39:52.756Z,18.57
2019-04-07T22:42:22.565Z,20.20
2019-04-07T22:44:54.277Z,19.93
2019-04-07T22:47:23.635Z,20.07
2019-04-07T22:49:53.052Z,19.70
2019-04-07T22:52:22.582Z,19.37
2019-04-07T22:54:51.965Z,20.00
2019-04-07T22:57:21.902Z,21.70
2019-04-07T22:59:51.334Z,20.00
2019-04-07T23:02:20.631Z,21.03
2019-04-07T23:04:50.326Z,19.67
2019-04-07T23:07:20.257Z,19.53
2019-04-07T23:09:49.694Z,19.87
2019-04-07T23:12:19.415Z,18.80
2019-04-07T23:14:49.564Z,21.17
2019-04-07T23:17:19.651Z,20.07
2019-04-07T23:19:49.269Z,18.83
2019-04-07T23:22:18.799Z,19.87
2019-04-07T23:24:48.074Z,19.80
2019-04-07T23:27:18.122Z,20.10
2019-04-07T23:29:47.603Z,19.33
2019-04-07T23:32:17.200Z,19.57
2019-04-07T23:34:47.747Z,18.80
2019-04-07T23:37:17.087Z,20.80
2019-04-07T23:39:46.375Z,18.73
2019-04-07T23:42:15.784Z,19.07
2019-04-07T23:44:45.763Z,19.10
2019-04-07T23:47:16.212Z,20.57
2019-04-07T23:49:45.547Z,20.73
2019-04-07T23:52:15.087Z,21.07
2019-04-07T23:54:44.375Z,20.37
2019-04-07T23:57:13.899Z,20.60
2019-04-07T23:59:44.299Z,21.03
